createdAt,value
2022-10-20T00:00:38.292Z,12.50
2022-10-20T00:03:06.433Z,12.50
2022-10-20T00:05:34.417Z,12.40
2022-10-20T00:08:02.484Z,12.40
2022-10-20T00:10:31.359Z,12.30
2022-10-20T00:13:00.790Z,12.30
2022-10-20T00:15:28.741Z,12.30
2022-10-20T00:17:56.785Z,12.20
2022-10-20T00:20:24.739Z,12.10
2022-10-20T00:22:52.703Z,12.00
2022-10-20T00:25:20.615Z,11.90
2022-10-20T00:27:48.507Z,11.90
2022-10-20T00:30:19.525Z,11.80
2022-10-20T00:32:49.418Z,11.80
2022-10-20T00:35:17.378Z,11.90
2022-10-20T00:37:45.283Z,11.90
2022-10-20T00:40:13.685Z,11.90
2022-10-20T00:42:45.317Z,11.90
2022-10-20T00:45:15.251Z,11.90
2022-10-20T00:47:48.317Z,11.80
2022-10-20T00:50:19.432Z,11.80
2022-10-20T00:52:48.739Z,11.80
2022-10-20T00:55:20.435Z,11.70
2022-10-20T00:57:51.942Z,11.70
2022-10-20T01:00:20.229Z,11.70
2022-10-20T01:02:51.340Z,11.60
2022-10-20T01:05:19.527Z,11.60
2022-10-20T01:07:47.629Z,11.50
2022-10-20T01:10:15.874Z,11.50
2022-10-20T01:12:52.836Z,11.30
2022-10-20T01:15:28.989Z,11.20
2022-10-20T01:18:05.536Z,11.20
2022-10-20T01:21:04.501Z,11.10
2022-10-20T01:23:54.072Z,11.10
2022-10-20T01:27:06.888Z,11.00
2022-10-20T01:29:40.151Z,11.00
2022-10-20T01:32:17.669Z,11.10
2022-10-20T01:34:53.162Z,11.20
2022-10-20T01:37:34.284Z,11.20
2022-10-20T01:40:26.616Z,11.20
2022-10-20T01:42:57.739Z,11.20
2022-10-20T01:45:31.161Z,11.20
2022-10-20T01:48:01.306Z,11.20
2022-10-20T01:50:42.399Z,11.20
2022-10-20T01:53:10.983Z,11.30
2022-10-20T01:55:40.136Z,11.30
2022-10-20T01:58:23.089Z,11.30
2022-10-20T02:01:02.062Z,11.30
2022-10-20T02:03:38.399Z,11.40
2022-10-20T02:06:18.228Z,11.40
2022-10-20T02:08:49.148Z,11.50
2022-10-20T02:11:25.472Z,11.50
2022-10-20T02:13:55.540Z,11.50
2022-10-20T02:16:29.468Z,11.50
2022-10-20T02:21:32.762Z,11.60
2022-10-20T02:24:04.643Z,11.60
2022-10-20T02:26:34.982Z,11.60
2022-10-20T02:29:10.249Z,11.60
2022-10-20T02:31:39.653Z,11.60
2022-10-20T02:34:08.775Z,11.60
2022-10-20T02:36:40.230Z,11.60
2022-10-20T02:39:08.588Z,11.60
2022-10-20T02:41:37.073Z,11.60
2022-10-20T02:44:05.353Z,11.50
2022-10-20T02:46:33.438Z,11.50
2022-10-20T02:49:02.675Z,11.40
2022-10-20T02:51:30.593Z,11.40
2022-10-20T02:53:58.508Z,11.40
2022-10-20T02:56:28.851Z,11.40
2022-10-20T02:58:58.991Z,11.40
2022-10-20T03:01:27.126Z,11.30
2022-10-20T03:03:58.537Z,11.30
2022-10-20T03:06:28.364Z,11.30
2022-10-20T03:08:56.528Z,11.30
2022-10-20T03:11:24.908Z,11.40
2022-10-20T03:13:52.865Z,11.40
2022-10-20T03:16:20.774Z,11.50
2022-10-20T03:18:48.693Z,11.50
2022-10-20T03:21:16.753Z,11.50
2022-10-20T03:23:46.033Z,11.50
2022-10-20T03:26:14.494Z,11.50
2022-10-20T03:28:42.486Z,11.50
2022-10-20T03:31:10.702Z,11.50
2022-10-20T03:33:38.748Z,11.50
2022-10-20T03:36:07.379Z,11.50
2022-10-20T03:38:35.361Z,11.50
2022-10-20T03:41:04.686Z,11.40
2022-10-20T03:43:32.621Z,11.40
2022-10-20T03:46:04.714Z,11.30
2022-10-20T03:48:32.913Z,11.30
2022-10-20T03:51:01.585Z,11.30
2022-10-20T03:53:30.096Z,11.30
2022-10-20T03:55:58.174Z,11.20
2022-10-20T03:58:27.448Z,11.20
2022-10-20T04:00:55.922Z,11.20
2022-10-20T04:03:23.815Z,11.20
2022-10-20T04:05:51.790Z,11.20
2022-10-20T04:08:19.728Z,11.20
2022-10-20T04:10:47.680Z,11.10
2022-10-20T04:13:15.587Z,11.10
2022-10-20T04:15:44.829Z,11.00
2022-10-20T04:18:12.732Z,10.80
2022-10-20T04:20:43.651Z,10.70
2022-10-20T04:23:12.896Z,10.60
2022-10-20T04:25:45.388Z,10.40
2022-10-20T04:28:13.880Z,10.30
2022-10-20T04:30:42.284Z,10.20
2022-10-20T04:33:11.889Z,10.20
2022-10-20T04:35:40.459Z,10.10
2022-10-20T04:38:08.871Z,10.20
2022-10-20T04:40:36.911Z,10.40
2022-10-20T04:43:04.844Z,10.40
2022-10-20T04:45:32.730Z,10.40
2022-10-20T04:48:00.669Z,10.40
2022-10-20T04:50:29.945Z,10.30
2022-10-20T04:53:08.432Z,10.20
2022-10-20T04:55:36.657Z,10.20
2022-10-20T04:58:04.707Z,10.10
2022-10-20T05:00:32.611Z,10.10
2022-10-20T05:03:00.576Z,10.00
2022-10-20T05:05:29.867Z,10.00
2022-10-20T05:07:57.764Z,10.00
2022-10-20T05:10:25.711Z,10.00
2022-10-20T05:12:53.651Z,10.00
2022-10-20T05:15:21.636Z,10.00
2022-10-20T05:17:49.616Z,10.10
2022-10-20T05:20:17.600Z,10.20
2022-10-20T05:22:46.852Z,10.20
2022-10-20T05:28:02.740Z,10.30
2022-10-20T05:30:30.675Z,10.30
2022-10-20T05:32:58.710Z,10.30
2022-10-20T05:35:26.647Z,10.40
2022-10-20T05:37:56.277Z,10.50
2022-10-20T05:40:24.623Z,10.60
2022-10-20T05:42:52.533Z,10.60
2022-10-20T05:45:20.423Z,10.60
2022-10-20T05:47:48.353Z,10.50
2022-10-20T05:50:16.389Z,10.50
2022-10-20T05:52:44.293Z,10.50
2022-10-20T05:55:13.609Z,10.40
2022-10-20T05:57:41.534Z,10.40
2022-10-20T06:00:11.289Z,10.40
2022-10-20T06:02:41.877Z,10.40
2022-10-20T06:05:10.058Z,10.40
2022-10-20T06:07:38.030Z,10.40
2022-10-20T06:10:06.621Z,10.50
2022-10-20T06:12:36.707Z,10.50
2022-10-20T06:15:05.446Z,10.50
2022-10-20T06:17:33.600Z,10.50
2022-10-20T06:20:01.690Z,10.50
2022-10-20T06:22:29.624Z,10.50
2022-10-20T06:24:57.554Z,10.50
2022-10-20T06:27:25.791Z,10.50
2022-10-20T06:29:55.530Z,10.50
2022-10-20T06:32:23.459Z,10.50
2022-10-20T06:34:51.367Z,10.50
2022-10-20T06:37:19.794Z,10.50
2022-10-20T06:39:47.753Z,10.50
2022-10-20T06:42:15.758Z,10.60
2022-10-20T06:44:46.438Z,10.50
2022-10-20T06:47:15.765Z,10.60
2022-10-20T06:49:43.689Z,10.60
2022-10-20T06:52:12.085Z,10.60
2022-10-20T06:54:40.103Z,10.70
2022-10-20T06:57:08.006Z,10.70
2022-10-20T06:59:35.926Z,10.70
2022-10-20T07:02:03.936Z,10.70
2022-10-20T07:04:33.356Z,10.80
2022-10-20T07:07:01.293Z,10.80
2022-10-20T07:09:29.261Z,10.80
2022-10-20T07:11:57.214Z,10.80
2022-10-20T07:14:25.202Z,10.80
2022-10-20T07:16:53.118Z,10.90
2022-10-20T07:19:20.993Z,10.90
2022-10-20T07:21:50.247Z,10.90
2022-10-20T07:24:18.163Z,10.90
2022-10-20T07:26:46.190Z,11.00
2022-10-20T07:29:15.577Z,11.00
2022-10-20T07:31:45.159Z,11.10
2022-10-20T07:34:30.712Z,11.10
2022-10-20T07:37:00.218Z,11.10
2022-10-20T07:39:28.558Z,11.10
2022-10-20T07:41:56.466Z,11.10
2022-10-20T07:44:24.384Z,11.20
2022-10-20T07:46:52.307Z,11.20
2022-10-20T07:52:09.799Z,11.20
2022-10-20T07:54:37.720Z,11.20
2022-10-20T07:57:05.756Z,11.20
2022-10-20T07:59:33.831Z,11.20
2022-10-20T08:02:01.903Z,11.20
2022-10-20T08:04:31.480Z,11.20
2022-10-20T08:06:59.874Z,11.30
2022-10-20T08:09:29.362Z,11.30
2022-10-20T08:11:57.367Z,11.30
2022-10-20T08:14:27.603Z,11.30
2022-10-20T08:17:00.712Z,11.40
2022-10-20T08:19:33.424Z,11.40
2022-10-20T08:22:01.700Z,11.40
2022-10-20T08:24:31.573Z,11.40
2022-10-20T08:27:00.190Z,11.50
2022-10-20T08:29:28.118Z,11.50
2022-10-20T08:31:56.069Z,11.50
2022-10-20T08:34:24.096Z,11.50
2022-10-20T08:36:52.013Z,11.50
2022-10-20T08:39:20.204Z,11.60
2022-10-20T08:42:08.945Z,11.60
2022-10-20T08:44:39.214Z,11.60
2022-10-20T08:47:16.785Z,11.60
2022-10-20T08:49:46.885Z,11.60
2022-10-20T08:52:15.873Z,11.60
2022-10-20T08:54:44.041Z,11.60
2022-10-20T08:57:24.027Z,11.60
2022-10-20T08:59:54.033Z,11.70
2022-10-20T09:02:22.868Z,11.60
2022-10-20T09:04:54.554Z,11.60
2022-10-20T09:07:29.516Z,11.70
2022-10-20T09:10:08.482Z,11.70
2022-10-20T09:12:40.842Z,11.70
2022-10-20T09:15:11.915Z,11.80
2022-10-20T09:17:42.952Z,11.80
2022-10-20T09:20:20.581Z,11.80
2022-10-20T09:22:48.972Z,11.90
2022-10-20T09:25:19.679Z,11.90
2022-10-20T09:27:49.384Z,11.90
2022-10-20T09:30:19.853Z,12.00
2022-10-20T09:32:48.551Z,12.00
2022-10-20T09:35:28.525Z,12.00
2022-10-20T09:38:02.327Z,12.00
2022-10-20T09:40:30.465Z,12.10
2022-10-20T09:43:03.307Z,12.10
2022-10-20T09:45:35.085Z,12.20
2022-10-20T09:48:08.101Z,12.20
2022-10-20T09:50:39.741Z,12.20
2022-10-20T09:53:19.566Z,12.30
2022-10-20T09:55:49.282Z,12.30
2022-10-20T09:58:27.341Z,12.30
2022-10-20T10:01:01.476Z,12.40
2022-10-20T10:03:30.075Z,12.40
2022-10-20T10:06:00.052Z,12.50
2022-10-20T10:08:30.518Z,12.50
2022-10-20T10:11:01.803Z,12.50
2022-10-20T10:13:37.050Z,12.60
2022-10-20T10:16:08.169Z,12.60
2022-10-20T10:18:38.210Z,12.70
2022-10-20T10:21:08.016Z,12.70
2022-10-20T10:23:40.974Z,12.80
2022-10-20T10:26:44.190Z,12.80
2022-10-20T10:29:24.844Z,12.90
2022-10-20T10:31:58.106Z,12.90
2022-10-20T10:34:38.721Z,12.90
2022-10-20T10:37:07.320Z,13.00
2022-10-20T10:39:37.296Z,13.00
2022-10-20T10:42:20.216Z,13.00
2022-10-20T10:44:58.331Z,13.00
2022-10-20T10:47:47.410Z,13.10
2022-10-20T10:50:28.775Z,13.20
2022-10-20T10:53:08.764Z,13.20
2022-10-20T10:55:48.762Z,13.30
2022-10-20T10:58:30.599Z,13.40
2022-10-20T11:01:09.762Z,13.50
2022-10-20T11:04:19.086Z,13.60
2022-10-20T11:06:54.269Z,13.60
2022-10-20T11:09:33.087Z,13.70
2022-10-20T11:12:27.860Z,13.70
2022-10-20T11:15:07.362Z,13.80
2022-10-20T11:17:49.488Z,13.80
2022-10-20T11:20:28.362Z,13.80
2022-10-20T11:23:14.819Z,13.90
2022-10-20T11:25:50.344Z,13.90
2022-10-20T11:28:30.398Z,13.90
2022-10-20T11:31:00.389Z,13.90
2022-10-20T11:33:43.174Z,13.90
2022-10-20T11:36:16.185Z,13.90
2022-10-20T11:38:50.306Z,13.90
2022-10-20T11:41:22.346Z,14.00
2022-10-20T11:43:57.863Z,14.00
2022-10-20T11:46:35.765Z,14.00
2022-10-20T11:49:05.425Z,14.10
2022-10-20T11:52:09.574Z,14.10
2022-10-20T11:54:57.487Z,14.10
2022-10-20T11:57:35.513Z,14.20
2022-10-20T12:00:23.431Z,14.20
2022-10-20T12:03:26.570Z,14.20
2022-10-20T12:06:23.339Z,14.20
2022-10-20T12:09:07.975Z,14.20
2022-10-20T12:11:42.947Z,14.30
2022-10-20T12:14:25.336Z,14.30
2022-10-20T12:17:20.405Z,14.30
2022-10-20T12:19:51.521Z,14.30
2022-10-20T12:22:40.897Z,14.40
2022-10-20T12:25:39.513Z,14.40
2022-10-20T12:28:45.508Z,14.50
2022-10-20T12:31:13.476Z,14.50
2022-10-20T12:34:00.500Z,14.60
2022-10-20T12:36:35.049Z,14.60
2022-10-20T12:39:24.766Z,14.70
2022-10-20T12:41:59.698Z,14.80
2022-10-20T12:44:30.689Z,14.80
2022-10-20T12:47:04.374Z,14.80
2022-10-20T12:49:34.997Z,14.80
2022-10-20T12:52:05.741Z,14.90
2022-10-20T12:54:39.498Z,14.90
2022-10-20T12:57:28.369Z,14.90
2022-10-20T12:59:56.319Z,14.90
2022-10-20T13:02:50.321Z,14.90
2022-10-20T13:05:49.060Z,14.90
2022-10-20T13:08:32.054Z,14.90
2022-10-20T13:11:38.163Z,15.00
2022-10-20T13:14:28.025Z,15.00
2022-10-20T13:17:04.512Z,15.00
2022-10-20T13:19:37.862Z,15.10
2022-10-20T13:22:29.354Z,15.10
2022-10-20T13:24:58.812Z,15.10
2022-10-20T13:27:28.871Z,15.20
2022-10-20T13:29:58.384Z,15.20
2022-10-20T13:32:34.845Z,15.20
2022-10-20T13:35:10.166Z,15.20
2022-10-20T13:37:52.805Z,15.20
2022-10-20T13:40:31.082Z,15.20
2022-10-20T13:43:12.592Z,15.20
2022-10-20T13:45:58.876Z,15.20
2022-10-20T13:48:41.749Z,15.20
2022-10-20T13:51:17.183Z,15.20
2022-10-20T13:53:51.571Z,15.20
2022-10-20T13:56:34.842Z,15.30
2022-10-20T13:59:06.145Z,15.30
2022-10-20T14:01:37.242Z,15.30
2022-10-20T14:04:28.640Z,15.30
2022-10-20T14:07:02.825Z,15.30
2022-10-20T14:09:30.837Z,15.30
2022-10-20T14:12:03.353Z,15.30
2022-10-20T14:14:32.503Z,15.30
2022-10-20T14:17:06.654Z,15.30
2022-10-20T14:19:35.872Z,15.30
2022-10-20T14:22:14.074Z,15.30
2022-10-20T14:24:45.814Z,15.30
2022-10-20T14:27:20.214Z,15.30
2022-10-20T14:29:49.507Z,15.30
2022-10-20T14:32:20.525Z,15.30
2022-10-20T14:34:57.189Z,15.30
2022-10-20T14:37:31.286Z,15.30
2022-10-20T14:40:02.128Z,15.30
2022-10-20T14:42:32.630Z,15.30
2022-10-20T14:45:02.790Z,15.30
2022-10-20T14:47:39.891Z,15.30
2022-10-20T14:50:19.899Z,15.30
2022-10-20T14:52:52.930Z,15.30
2022-10-20T14:55:43.100Z,15.30
2022-10-20T14:58:32.979Z,15.30
2022-10-20T15:01:22.744Z,15.30
2022-10-20T15:04:16.467Z,15.30
2022-10-20T15:06:45.208Z,15.30
2022-10-20T15:09:21.304Z,15.30
2022-10-20T15:11:49.405Z,15.30
2022-10-20T15:14:18.332Z,15.30
2022-10-20T15:16:48.042Z,15.30
2022-10-20T15:19:30.007Z,15.30
2022-10-20T15:22:01.742Z,15.30
2022-10-20T15:24:30.411Z,15.30
2022-10-20T15:26:59.029Z,15.30
2022-10-20T15:29:28.057Z,15.30
2022-10-20T15:31:56.322Z,15.30
2022-10-20T15:34:25.460Z,15.30
2022-10-20T15:36:55.839Z,15.30
2022-10-20T15:39:23.884Z,15.30
2022-10-20T15:41:53.834Z,15.30
2022-10-20T15:44:23.069Z,15.30
2022-10-20T15:46:53.487Z,15.30
2022-10-20T15:49:21.482Z,15.20
2022-10-20T15:51:51.318Z,15.20
2022-10-20T15:54:22.435Z,15.20
2022-10-20T15:56:51.022Z,15.20
2022-10-20T15:59:18.921Z,15.20
2022-10-20T16:01:46.877Z,15.20
2022-10-20T16:04:18.482Z,15.10
2022-10-20T16:06:47.090Z,15.10
2022-10-20T16:09:16.328Z,15.10
2022-10-20T16:11:46.264Z,15.10
2022-10-20T16:14:15.410Z,15.10
2022-10-20T16:16:44.798Z,15.10
2022-10-20T16:19:12.857Z,15.00
2022-10-20T16:21:41.253Z,15.00
2022-10-20T16:24:11.443Z,15.00
2022-10-20T16:26:39.545Z,15.00
2022-10-20T16:29:08.894Z,15.10
2022-10-20T16:31:36.902Z,15.10
2022-10-20T16:34:04.907Z,15.10
2022-10-20T16:36:33.660Z,15.10
2022-10-20T16:39:01.765Z,15.10
2022-10-20T16:41:29.741Z,15.10
2022-10-20T16:44:00.894Z,15.10
2022-10-20T16:46:30.661Z,15.10
2022-10-20T16:48:58.651Z,15.00
2022-10-20T16:51:26.993Z,15.00
2022-10-20T16:53:57.440Z,15.00
2022-10-20T16:56:30.006Z,15.00
2022-10-20T16:58:58.043Z,15.00
2022-10-20T17:01:26.192Z,15.00
2022-10-20T17:03:55.831Z,15.00
2022-10-20T17:06:26.092Z,15.00
2022-10-20T17:08:55.054Z,15.00
2022-10-20T17:11:25.598Z,15.00
2022-10-20T17:13:53.664Z,15.00
2022-10-20T17:16:26.251Z,15.00
2022-10-20T17:18:59.131Z,15.00
2022-10-20T17:21:27.460Z,15.00
2022-10-20T17:23:55.434Z,15.00
2022-10-20T17:26:25.631Z,15.00
2022-10-20T17:28:55.918Z,14.90
2022-10-20T17:31:23.928Z,14.90
2022-10-20T17:33:52.458Z,14.90
2022-10-20T17:36:25.985Z,14.90
2022-10-20T17:38:56.217Z,14.90
2022-10-20T17:41:24.505Z,14.90
2022-10-20T17:43:52.626Z,14.90
2022-10-20T17:46:21.205Z,14.90
2022-10-20T17:48:49.651Z,14.90
2022-10-20T17:51:20.463Z,14.90
2022-10-20T17:53:51.042Z,14.80
2022-10-20T17:56:21.096Z,14.80
2022-10-20T17:58:51.042Z,14.80
2022-10-20T18:01:21.478Z,14.80
2022-10-20T18:03:54.417Z,14.80
2022-10-20T18:06:24.400Z,14.80
2022-10-20T18:08:56.353Z,14.90
2022-10-20T18:11:26.633Z,14.90
2022-10-20T18:13:56.420Z,14.80
2022-10-20T18:16:24.894Z,14.80
2022-10-20T18:18:52.931Z,14.80
2022-10-20T18:21:21.159Z,14.90
2022-10-20T18:23:49.129Z,14.80
2022-10-20T18:26:20.384Z,14.80
2022-10-20T18:28:49.400Z,14.80
2022-10-20T18:31:19.984Z,14.80
2022-10-20T18:33:48.591Z,14.80
2022-10-20T18:36:20.441Z,14.80
2022-10-20T18:38:48.682Z,14.80
2022-10-20T18:41:19.957Z,14.80
2022-10-20T18:43:56.872Z,14.80
2022-10-20T18:46:26.893Z,14.80
2022-10-20T18:48:55.307Z,14.80
2022-10-20T18:51:24.153Z,14.80
2022-10-20T18:53:55.145Z,14.80
2022-10-20T18:56:26.768Z,14.80
2022-10-20T18:58:56.216Z,14.80
2022-10-20T19:01:26.498Z,14.80
2022-10-20T19:03:56.074Z,14.80
2022-10-20T19:06:26.190Z,14.80
2022-10-20T19:08:55.327Z,14.80
2022-10-20T19:11:27.075Z,14.80
2022-10-20T19:13:55.597Z,14.80
2022-10-20T19:16:28.765Z,14.80
2022-10-20T19:18:58.728Z,14.80
2022-10-20T19:21:28.210Z,14.70
2022-10-20T19:23:59.993Z,14.70
2022-10-20T19:26:31.590Z,14.70
2022-10-20T19:29:01.354Z,14.70
2022-10-20T19:31:31.574Z,14.60
2022-10-20T19:34:01.426Z,14.60
2022-10-20T19:36:30.173Z,14.60
2022-10-20T19:38:58.312Z,14.60
2022-10-20T19:41:26.944Z,14.60
2022-10-20T19:43:56.291Z,14.50
2022-10-20T19:46:24.817Z,14.50
2022-10-20T19:48:53.418Z,14.60
2022-10-20T19:51:22.126Z,14.50
2022-10-20T19:53:50.905Z,14.50
2022-10-20T19:56:19.567Z,14.50
2022-10-20T19:58:48.571Z,14.50
2022-10-20T20:01:18.393Z,14.40
2022-10-20T20:03:46.567Z,14.40
2022-10-20T20:06:17.141Z,14.40
2022-10-20T20:08:45.949Z,14.40
2022-10-20T20:11:23.451Z,14.40
2022-10-20T20:13:52.011Z,14.40
2022-10-20T20:16:21.693Z,14.40
2022-10-20T20:18:50.249Z,14.40
2022-10-20T20:21:19.093Z,14.40
2022-10-20T20:23:58.737Z,14.40
2022-10-20T20:26:28.064Z,14.40
2022-10-20T20:28:57.163Z,14.40
2022-10-20T20:31:26.792Z,14.50
2022-10-20T20:33:56.617Z,14.50
2022-10-20T20:36:26.965Z,14.50
2022-10-20T20:38:57.392Z,14.50
2022-10-20T20:41:26.660Z,14.60
2022-10-20T20:43:55.034Z,14.60
2022-10-20T20:46:24.456Z,14.60
2022-10-20T20:48:54.770Z,14.60
2022-10-20T20:51:23.131Z,14.50
2022-10-20T20:53:52.326Z,14.60
2022-10-20T20:56:23.375Z,14.60
2022-10-20T20:58:55.780Z,14.60
2022-10-20T21:01:27.276Z,14.60
2022-10-20T21:03:57.810Z,14.70
2022-10-20T21:06:33.680Z,14.70
2022-10-20T21:09:02.370Z,14.70
2022-10-20T21:11:30.520Z,14.70
2022-10-20T21:13:58.994Z,14.70
2022-10-20T21:16:29.193Z,14.70
2022-10-20T21:19:00.846Z,14.70
2022-10-20T21:21:30.852Z,14.70
2022-10-20T21:24:00.006Z,14.70
2022-10-20T21:26:29.991Z,14.70
2022-10-20T21:28:58.607Z,14.70
2022-10-20T21:31:27.889Z,14.70
2022-10-20T21:33:58.925Z,14.80
2022-10-20T21:36:27.919Z,14.80
2022-10-20T21:38:56.152Z,14.80
2022-10-20T21:41:25.951Z,14.80
2022-10-20T21:43:55.594Z,14.70
2022-10-20T21:46:25.866Z,14.70
2022-10-20T21:48:55.455Z,14.70
2022-10-20T21:51:26.615Z,14.70
2022-10-20T21:53:56.482Z,14.70
2022-10-20T21:56:25.607Z,14.70
2022-10-20T21:58:54.299Z,14.70
2022-10-20T22:01:24.029Z,14.70
2022-10-20T22:03:53.922Z,14.70
2022-10-20T22:06:24.929Z,14.80
2022-10-20T22:08:54.648Z,14.80
2022-10-20T22:11:24.539Z,14.80
2022-10-20T22:13:53.076Z,14.80
2022-10-20T22:16:23.796Z,14.80
2022-10-20T22:18:56.329Z,14.80
2022-10-20T22:21:25.958Z,14.80
2022-10-20T22:23:55.104Z,14.80
2022-10-20T22:26:25.626Z,14.80
2022-10-20T22:28:54.645Z,14.80
2022-10-20T22:31:23.225Z,14.80
2022-10-20T22:33:51.793Z,14.80
2022-10-20T22:36:20.214Z,14.80
2022-10-20T22:38:49.761Z,14.80
2022-10-20T22:41:18.290Z,14.80
2022-10-20T22:43:46.176Z,14.80
2022-10-20T22:46:15.749Z,14.80
2022-10-20T22:48:44.113Z,14.80
2022-10-20T22:51:12.933Z,14.80
2022-10-20T22:53:41.196Z,14.80
2022-10-20T22:56:13.091Z,14.80
2022-10-20T22:58:41.635Z,14.80
2022-10-20T23:01:10.273Z,14.80
2022-10-20T23:03:38.717Z,14.80
2022-10-20T23:06:08.298Z,14.80
2022-10-20T23:08:40.842Z,14.90
2022-10-20T23:11:10.214Z,14.90
2022-10-20T23:13:38.205Z,15.00
2022-10-20T23:16:07.819Z,15.00
2022-10-20T23:18:35.775Z,15.10
2022-10-20T23:21:03.920Z,15.10
2022-10-20T23:23:32.665Z,15.10
2022-10-20T23:26:03.699Z,15.10
2022-10-20T23:28:34.111Z,15.00
2022-10-20T23:31:10.377Z,15.10
2022-10-20T23:33:38.477Z,15.00
2022-10-20T23:36:07.089Z,15.00
2022-10-20T23:38:35.506Z,15.10
2022-10-20T23:41:03.945Z,15.10
2022-10-20T23:43:33.827Z,15.10
2022-10-20T23:46:01.863Z,15.10
2022-10-20T23:48:29.840Z,15.10
2022-10-20T23:50:57.820Z,15.10
2022-10-20T23:53:26.642Z,15.10
2022-10-20T23:55:54.550Z,15.10
2022-10-20T23:58:23.212Z,15.10
